Bangor, New York
Current Conditions -  °F | °C
As of 9:38 PM on Wednesday 17 Dec 2014 (Local Time) from KMSS Reporting Station
Overcast Overcast  
Wind Chill: 29°   Ceiling: 1100
Heat Index: 34°   Visibility: 10mi
Dew Point: 32°   Wind: 6mph
Humidity: 92%   Direction: 250°WSW
Pressure: 29.8"   Gusts: NA
Location:  44.7973°N, 74.4173°W
Report Text: KMSS 180238Z AUTO 25005KT 10SM OVC011 01/00 A2980 RMK AO2 UPE30 P0000 I1000 T00110000
Loading
Personal Weather Stations






























Interactive Weather Map New forecast layout! Learn more

10-Day Weather Forecast

Advertisements
Track Severe Weather on mobile